sensor_id;sensor_type;location;lat;lon;timestamp;pressure;altitude;pressure_sealevel;temperature;humidity
25944;BME280;13742;49.306;8.636;2023-04-22T00:00:21;99799.95;;;12.96;86.12
25944;BME280;13742;49.306;8.636;2023-04-22T00:01:23;99801.39;;;12.96;85.76
25944;BME280;13742;49.306;8.636;2023-04-22T00:02:22;99800.00;;;12.96;85.60
25944;BME280;13742;49.306;8.636;2023-04-22T00:03:24;99799.84;;;12.96;85.66
25944;BME280;13742;49.306;8.636;2023-04-22T00:04:21;99799.45;;;12.96;85.40
25944;BME280;13742;49.306;8.636;2023-04-22T00:05:21;99797.58;;;12.95;85.25
25944;BME280;13742;49.306;8.636;2023-04-22T00:06:21;99799.52;;;12.96;85.12
25944;BME280;13742;49.306;8.636;2023-04-22T00:07:21;99797.30;;;12.95;84.97
25944;BME280;13742;49.306;8.636;2023-04-22T00:08:20;99798.39;;;12.94;84.93
25944;BME280;13742;49.306;8.636;2023-04-22T00:09:21;99798.22;;;12.93;84.97
25944;BME280;13742;49.306;8.636;2023-04-22T00:10:21;99798.78;;;12.93;85.23
25944;BME280;13742;49.306;8.636;2023-04-22T00:11:21;99800.16;;;12.92;85.21
25944;BME280;13742;49.306;8.636;2023-04-22T00:12:21;99799.20;;;12.90;85.43
25944;BME280;13742;49.306;8.636;2023-04-22T00:13:21;99799.23;;;12.90;85.68
25944;BME280;13742;49.306;8.636;2023-04-22T00:14:20;99798.88;;;12.89;85.45
25944;BME280;13742;49.306;8.636;2023-04-22T00:15:21;99800.59;;;12.89;85.83
25944;BME280;13742;49.306;8.636;2023-04-22T00:16:21;99797.29;;;12.88;86.08
25944;BME280;13742;49.306;8.636;2023-04-22T00:17:20;99802.39;;;12.86;86.11
25944;BME280;13742;49.306;8.636;2023-04-22T00:18:21;99803.23;;;12.85;86.14
25944;BME280;13742;49.306;8.636;2023-04-22T00:19:21;99801.46;;;12.83;86.56
25944;BME280;13742;49.306;8.636;2023-04-22T00:20:21;99803.93;;;12.83;86.55
25944;BME280;13742;49.306;8.636;2023-04-22T00:21:21;99803.20;;;12.80;86.55
25944;BME280;13742;49.306;8.636;2023-04-22T00:22:21;99804.86;;;12.80;86.86
25944;BME280;13742;49.306;8.636;2023-04-22T00:23:21;99803.31;;;12.79;86.84
25944;BME280;13742;49.306;8.636;2023-04-22T00:24:21;99800.86;;;12.77;87.37
25944;BME280;13742;49.306;8.636;2023-04-22T00:25:21;99801.30;;;12.76;87.42
25944;BME280;13742;49.306;8.636;2023-04-22T00:26:21;99800.45;;;12.74;87.68
25944;BME280;13742;49.306;8.636;2023-04-22T00:27:20;99797.86;;;12.74;88.10
25944;BME280;13742;49.306;8.636;2023-04-22T00:28:20;99799.29;;;12.73;88.05
25944;BME280;13742;49.306;8.636;2023-04-22T00:29:20;99796.13;;;12.70;88.11
25944;BME280;13742;49.306;8.636;2023-04-22T00:30:21;99793.97;;;12.69;88.26
25944;BME280;13742;49.306;8.636;2023-04-22T00:31:20;99798.80;;;12.66;88.18
25944;BME280;13742;49.306;8.636;2023-04-22T00:32:21;99795.66;;;12.66;88.29
25944;BME280;13742;49.306;8.636;2023-04-22T00:33:20;99799.18;;;12.65;88.01
25944;BME280;13742;49.306;8.636;2023-04-22T00:34:20;99797.64;;;12.65;87.99
25944;BME280;13742;49.306;8.636;2023-04-22T00:35:21;99798.23;;;12.65;88.17
25944;BME280;13742;49.306;8.636;2023-04-22T00:36:21;99795.98;;;12.65;88.26
25944;BME280;13742;49.306;8.636;2023-04-22T00:37:21;99797.19;;;12.65;88.54
25944;BME280;13742;49.306;8.636;2023-04-22T00:38:21;99800.63;;;12.65;88.43
25944;BME280;13742;49.306;8.636;2023-04-22T00:39:21;99797.80;;;12.64;88.23
25944;BME280;13742;49.306;8.636;2023-04-22T00:40:21;99798.23;;;12.65;88.14
25944;BME280;13742;49.306;8.636;2023-04-22T00:41:20;99795.53;;;12.64;87.96
25944;BME280;13742;49.306;8.636;2023-04-22T00:42:20;99796.30;;;12.63;87.75
25944;BME280;13742;49.306;8.636;2023-04-22T00:43:20;99801.05;;;12.63;87.60
25944;BME280;13742;49.306;8.636;2023-04-22T00:44:21;99797.07;;;12.63;87.44
25944;BME280;13742;49.306;8.636;2023-04-22T00:45:21;99802.16;;;12.64;87.61
25944;BME280;13742;49.306;8.636;2023-04-22T00:46:21;99797.80;;;12.63;87.36
25944;BME280;13742;49.306;8.636;2023-04-22T00:47:21;99798.89;;;12.63;87.02
25944;BME280;13742;49.306;8.636;2023-04-22T00:48:20;99797.13;;;12.63;87.23
25944;BME280;13742;49.306;8.636;2023-04-22T00:49:20;99795.03;;;12.63;87.63
25944;BME280;13742;49.306;8.636;2023-04-22T00:50:21;99797.11;;;12.63;87.83
25944;BME280;13742;49.306;8.636;2023-04-22T00:51:20;99800.34;;;12.63;87.37
25944;BME280;13742;49.306;8.636;2023-04-22T00:52:21;99800.61;;;12.63;87.35
25944;BME280;13742;49.306;8.636;2023-04-22T00:53:20;99801.94;;;12.62;87.41
25944;BME280;13742;49.306;8.636;2023-04-22T00:54:20;99801.42;;;12.61;87.71
25944;BME280;13742;49.306;8.636;2023-04-22T00:55:21;99798.48;;;12.61;87.97
25944;BME280;13742;49.306;8.636;2023-04-22T00:56:20;99796.12;;;12.61;87.89
25944;BME280;13742;49.306;8.636;2023-04-22T00:57:21;99797.45;;;12.61;87.16
25944;BME280;13742;49.306;8.636;2023-04-22T00:58:21;99795.56;;;12.62;87.58
25944;BME280;13742;49.306;8.636;2023-04-22T00:59:21;99794.13;;;12.61;87.62
25944;BME280;13742;49.306;8.636;2023-04-22T01:00:25;99790.98;;;12.61;87.69
25944;BME280;13742;49.306;8.636;2023-04-22T01:01:21;99792.72;;;12.63;87.96
25944;BME280;13742;49.306;8.636;2023-04-22T01:02:20;99795.86;;;12.63;87.56
25944;BME280;13742;49.306;8.636;2023-04-22T01:03:21;99795.36;;;12.64;87.64
25944;BME280;13742;49.306;8.636;2023-04-22T01:04:20;99793.05;;;12.63;87.54
25944;BME280;13742;49.306;8.636;2023-04-22T01:05:20;99791.89;;;12.63;87.36
25944;BME280;13742;49.306;8.636;2023-04-22T01:06:21;99793.16;;;12.63;87.20
25944;BME280;13742;49.306;8.636;2023-04-22T01:07:20;99793.92;;;12.61;86.97
25944;BME280;13742;49.306;8.636;2023-04-22T01:08:21;99792.52;;;12.61;87.02
25944;BME280;13742;49.306;8.636;2023-04-22T01:09:20;99793.91;;;12.62;87.00
25944;BME280;13742;49.306;8.636;2023-04-22T01:10:21;99795.58;;;12.62;86.82
25944;BME280;13742;49.306;8.636;2023-04-22T01:11:22;99794.36;;;12.62;86.85
25944;BME280;13742;49.306;8.636;2023-04-22T01:12:20;99793.36;;;12.62;86.85
25944;BME280;13742;49.306;8.636;2023-04-22T01:13:21;99793.08;;;12.62;86.60
25944;BME280;13742;49.306;8.636;2023-04-22T01:14:21;99791.16;;;12.62;86.94
25944;BME280;13742;49.306;8.636;2023-04-22T01:15:20;99792.59;;;12.62;86.80
25944;BME280;13742;49.306;8.636;2023-04-22T01:16:21;99794.03;;;12.62;86.74
25944;BME280;13742;49.306;8.636;2023-04-22T01:17:23;99795.90;;;12.62;86.82
25944;BME280;13742;49.306;8.636;2023-04-22T01:18:20;99797.82;;;12.61;86.78
25944;BME280;13742;49.306;8.636;2023-04-22T01:19:20;99800.32;;;12.61;86.92
25944;BME280;13742;49.306;8.636;2023-04-22T01:20:21;99796.99;;;12.61;86.59
25944;BME280;13742;49.306;8.636;2023-04-22T01:21:21;99793.75;;;12.61;86.81
25944;BME280;13742;49.306;8.636;2023-04-22T01:22:20;99791.88;;;12.61;86.58
25944;BME280;13742;49.306;8.636;2023-04-22T01:23:21;99793.58;;;12.62;86.73
25944;BME280;13742;49.306;8.636;2023-04-22T01:24:20;99796.78;;;12.61;86.71
25944;BME280;13742;49.306;8.636;2023-04-22T01:25:21;99794.30;;;12.61;86.75
25944;BME280;13742;49.306;8.636;2023-04-22T01:26:21;99796.08;;;12.61;86.95
25944;BME280;13742;49.306;8.636;2023-04-22T01:27:20;99798.11;;;12.61;86.90
25944;BME280;13742;49.306;8.636;2023-04-22T01:28:20;99800.76;;;12.61;86.67
25944;BME280;13742;49.306;8.636;2023-04-22T01:29:20;99803.84;;;12.62;86.51
25944;BME280;13742;49.306;8.636;2023-04-22T01:30:21;99803.47;;;12.61;86.50
25944;BME280;13742;49.306;8.636;2023-04-22T01:31:20;99805.27;;;12.61;86.50
25944;BME280;13742;49.306;8.636;2023-04-22T01:32:21;99804.23;;;12.59;86.41
25944;BME280;13742;49.306;8.636;2023-04-22T01:33:20;99803.34;;;12.59;86.52
25944;BME280;13742;49.306;8.636;2023-04-22T01:34:21;99801.25;;;12.59;86.67
25944;BME280;13742;49.306;8.636;2023-04-22T01:35:20;99803.45;;;12.58;87.09
25944;BME280;13742;49.306;8.636;2023-04-22T01:36:21;99804.87;;;12.58;87.07
25944;BME280;13742;49.306;8.636;2023-04-22T01:37:20;99805.53;;;12.58;87.08
25944;BME280;13742;49.306;8.636;2023-04-22T01:38:20;99801.89;;;12.57;87.41
25944;BME280;13742;49.306;8.636;2023-04-22T01:39:20;99804.48;;;12.57;87.04
25944;BME280;13742;49.306;8.636;2023-04-22T01:40:21;99803.88;;;12.57;86.71
25944;BME280;13742;49.306;8.636;2023-04-22T01:41:21;99804.26;;;12.56;87.05
25944;BME280;13742;49.306;8.636;2023-04-22T01:42:20;99803.42;;;12.56;87.08
25944;BME280;13742;49.306;8.636;2023-04-22T01:43:20;99802.32;;;12.56;87.32
25944;BME280;13742;49.306;8.636;2023-04-22T01:44:21;99804.08;;;12.56;87.21
25944;BME280;13742;49.306;8.636;2023-04-22T01:45:20;99802.75;;;12.55;87.06
25944;BME280;13742;49.306;8.636;2023-04-22T01:46:20;99803.36;;;12.55;87.24
25944;BME280;13742;49.306;8.636;2023-04-22T01:47:20;99804.70;;;12.55;87.10
25944;BME280;13742;49.306;8.636;2023-04-22T01:48:20;99802.99;;;12.56;87.58
25944;BME280;13742;49.306;8.636;2023-04-22T01:49:20;99804.64;;;12.57;87.27
25944;BME280;13742;49.306;8.636;2023-04-22T01:50:21;99806.20;;;12.57;87.08
25944;BME280;13742;49.306;8.636;2023-04-22T01:51:20;99805.42;;;12.56;86.73
25944;BME280;13742;49.306;8.636;2023-04-22T01:52:20;99811.82;;;12.58;86.63
25944;BME280;13742;49.306;8.636;2023-04-22T01:53:20;99813.04;;;12.58;86.22
25944;BME280;13742;49.306;8.636;2023-04-22T01:54:20;99811.67;;;12.57;86.41
25944;BME280;13742;49.306;8.636;2023-04-22T01:55:20;99811.44;;;12.57;86.39
25944;BME280;13742;49.306;8.636;2023-04-22T01:56:21;99813.54;;;12.58;86.58
25944;BME280;13742;49.306;8.636;2023-04-22T01:57:20;99812.83;;;12.57;86.32
25944;BME280;13742;49.306;8.636;2023-04-22T01:58:20;99813.75;;;12.57;86.38
25944;BME280;13742;49.306;8.636;2023-04-22T01:59:20;99808.40;;;12.56;86.54
25944;BME280;13742;49.306;8.636;2023-04-22T02:00:20;99811.88;;;12.56;86.44
25944;BME280;13742;49.306;8.636;2023-04-22T02:01:20;99813.14;;;12.57;86.41
25944;BME280;13742;49.306;8.636;2023-04-22T02:02:21;99815.69;;;12.56;86.38
25944;BME280;13742;49.306;8.636;2023-04-22T02:03:20;99813.91;;;12.56;86.72
25944;BME280;13742;49.306;8.636;2023-04-22T02:04:20;99811.53;;;12.55;86.49
25944;BME280;13742;49.306;8.636;2023-04-22T02:05:20;99816.23;;;12.54;86.69
25944;BME280;13742;49.306;8.636;2023-04-22T02:06:21;99814.22;;;12.53;86.55
25944;BME280;13742;49.306;8.636;2023-04-22T02:07:20;99815.55;;;12.53;86.81
25944;BME280;13742;49.306;8.636;2023-04-22T02:08:20;99818.08;;;12.52;87.09
25944;BME280;13742;49.306;8.636;2023-04-22T02:09:20;99820.29;;;12.52;87.05
25944;BME280;13742;49.306;8.636;2023-04-22T02:10:21;99818.52;;;12.51;86.99
25944;BME280;13742;49.306;8.636;2023-04-22T02:11:20;99819.84;;;12.51;86.90
25944;BME280;13742;49.306;8.636;2023-04-22T02:12:20;99818.34;;;12.48;86.87
25944;BME280;13742;49.306;8.636;2023-04-22T02:13:21;99816.83;;;12.48;87.04
25944;BME280;13742;49.306;8.636;2023-04-22T02:14:20;99818.11;;;12.49;86.97
25944;BME280;13742;49.306;8.636;2023-04-22T02:15:21;99813.25;;;12.49;87.23
25944;BME280;13742;49.306;8.636;2023-04-22T02:16:20;99811.66;;;12.49;86.98
25944;BME280;13742;49.306;8.636;2023-04-22T02:17:21;99814.30;;;12.49;86.93
25944;BME280;13742;49.306;8.636;2023-04-22T02:18:21;99813.13;;;12.48;87.14
25944;BME280;13742;49.306;8.636;2023-04-22T02:19:20;99814.13;;;12.48;87.11
25944;BME280;13742;49.306;8.636;2023-04-22T02:20:20;99809.27;;;12.47;87.07
25944;BME280;13742;49.306;8.636;2023-04-22T02:21:20;99810.00;;;12.47;87.07
25944;BME280;13742;49.306;8.636;2023-04-22T02:22:21;99809.83;;;12.47;87.04
25944;BME280;13742;49.306;8.636;2023-04-22T02:23:20;99811.32;;;12.47;86.98
25944;BME280;13742;49.306;8.636;2023-04-22T02:24:20;99804.41;;;12.48;87.03
25944;BME280;13742;49.306;8.636;2023-04-22T02:25:20;99808.39;;;12.48;86.82
25944;BME280;13742;49.306;8.636;2023-04-22T02:26:21;99807.89;;;12.48;86.81
25944;BME280;13742;49.306;8.636;2023-04-22T02:27:21;99806.36;;;12.47;86.86
25944;BME280;13742;49.306;8.636;2023-04-22T02:28:21;99805.86;;;12.47;86.61
25944;BME280;13742;49.306;8.636;2023-04-22T02:29:20;99806.85;;;12.47;86.77
25944;BME280;13742;49.306;8.636;2023-04-22T02:30:20;99809.28;;;12.48;86.93
25944;BME280;13742;49.306;8.636;2023-04-22T02:31:20;99806.34;;;12.47;86.77
25944;BME280;13742;49.306;8.636;2023-04-22T02:32:20;99808.88;;;12.47;86.50
25944;BME280;13742;49.306;8.636;2023-04-22T02:33:20;99811.37;;;12.47;86.46
25944;BME280;13742;49.306;8.636;2023-04-22T02:34:20;99812.36;;;12.47;86.41
25944;BME280;13742;49.306;8.636;2023-04-22T02:35:20;99815.34;;;12.47;86.24
25944;BME280;13742;49.306;8.636;2023-04-22T02:36:20;99816.88;;;12.47;86.15
25944;BME280;13742;49.306;8.636;2023-04-22T02:37:21;99810.20;;;12.47;85.90
25944;BME280;13742;49.306;8.636;2023-04-22T02:38:20;99813.51;;;12.46;85.94
25944;BME280;13742;49.306;8.636;2023-04-22T02:39:20;99814.99;;;12.46;85.81
25944;BME280;13742;49.306;8.636;2023-04-22T02:40:20;99814.39;;;12.46;85.84
25944;BME280;13742;49.306;8.636;2023-04-22T02:41:20;99813.74;;;12.46;85.81
25944;BME280;13742;49.306;8.636;2023-04-22T02:42:20;99811.95;;;12.45;85.68
25944;BME280;13742;49.306;8.636;2023-04-22T02:43:20;99815.61;;;12.44;86.00
25944;BME280;13742;49.306;8.636;2023-04-22T02:44:20;99812.55;;;12.43;85.65
25944;BME280;13742;49.306;8.636;2023-04-22T02:45:21;99812.82;;;12.43;85.54
25944;BME280;13742;49.306;8.636;2023-04-22T02:46:20;99817.47;;;12.44;85.87
25944;BME280;13742;49.306;8.636;2023-04-22T02:47:21;99813.22;;;12.44;85.82
25944;BME280;13742;49.306;8.636;2023-04-22T02:48:20;99811.13;;;12.44;85.71
25944;BME280;13742;49.306;8.636;2023-04-22T02:49:20;99812.63;;;12.44;85.79
25944;BME280;13742;49.306;8.636;2023-04-22T02:50:20;99809.96;;;12.44;85.97
25944;BME280;13742;49.306;8.636;2023-04-22T02:51:21;99813.62;;;12.44;85.96
25944;BME280;13742;49.306;8.636;2023-04-22T02:52:20;99808.59;;;12.45;85.99
25944;BME280;13742;49.306;8.636;2023-04-22T02:53:20;99810.40;;;12.43;85.68
25944;BME280;13742;49.306;8.636;2023-04-22T02:54:20;99808.86;;;12.44;85.77
25944;BME280;13742;49.306;8.636;2023-04-22T02:55:23;99811.89;;;12.44;85.72
25944;BME280;13742;49.306;8.636;2023-04-22T02:56:20;99808.80;;;12.44;85.62
25944;BME280;13742;49.306;8.636;2023-04-22T02:57:21;99810.85;;;12.45;85.78
25944;BME280;13742;49.306;8.636;2023-04-22T02:58:21;99812.84;;;12.45;85.54
25944;BME280;13742;49.306;8.636;2023-04-22T02:59:20;99810.52;;;12.45;85.83
25944;BME280;13742;49.306;8.636;2023-04-22T03:00:20;99813.84;;;12.46;85.62
25944;BME280;13742;49.306;8.636;2023-04-22T03:01:20;99815.66;;;12.44;85.58
25944;BME280;13742;49.306;8.636;2023-04-22T03:02:20;99815.71;;;12.45;85.25
25944;BME280;13742;49.306;8.636;2023-04-22T03:03:21;99814.06;;;12.45;85.26
25944;BME280;13742;49.306;8.636;2023-04-22T03:04:20;99812.34;;;12.44;85.29
25944;BME280;13742;49.306;8.636;2023-04-22T03:05:21;99817.74;;;12.44;85.38
25944;BME280;13742;49.306;8.636;2023-04-22T03:06:21;99816.20;;;12.44;85.25
25944;BME280;13742;49.306;8.636;2023-04-22T03:07:20;99816.92;;;12.44;85.29
25944;BME280;13742;49.306;8.636;2023-04-22T03:08:20;99821.61;;;12.45;85.14
25944;BME280;13742;49.306;8.636;2023-04-22T03:09:20;99819.30;;;12.44;85.02
25944;BME280;13742;49.306;8.636;2023-04-22T03:10:20;99825.09;;;12.44;84.75
25944;BME280;13742;49.306;8.636;2023-04-22T03:11:20;99820.39;;;12.43;84.89
25944;BME280;13742;49.306;8.636;2023-04-22T03:12:20;99825.34;;;12.42;84.82
25944;BME280;13742;49.306;8.636;2023-04-22T03:13:20;99821.35;;;12.40;84.87
25944;BME280;13742;49.306;8.636;2023-04-22T03:14:20;99822.03;;;12.41;84.91
25944;BME280;13742;49.306;8.636;2023-04-22T03:15:20;99823.79;;;12.41;84.96
25944;BME280;13742;49.306;8.636;2023-04-22T03:16:22;99821.26;;;12.41;84.96
25944;BME280;13742;49.306;8.636;2023-04-22T03:17:20;99824.28;;;12.40;84.97
25944;BME280;13742;49.306;8.636;2023-04-22T03:18:20;99824.34;;;12.41;84.94
25944;BME280;13742;49.306;8.636;2023-04-22T03:19:20;99822.52;;;12.40;84.99
25944;BME280;13742;49.306;8.636;2023-04-22T03:20:20;99823.34;;;12.39;84.82
25944;BME280;13742;49.306;8.636;2023-04-22T03:21:20;99826.00;;;12.40;84.84
25944;BME280;13742;49.306;8.636;2023-04-22T03:22:20;99827.64;;;12.39;84.93
25944;BME280;13742;49.306;8.636;2023-04-22T03:23:20;99830.39;;;12.39;84.83
25944;BME280;13742;49.306;8.636;2023-04-22T03:24:20;99829.01;;;12.38;84.51
25944;BME280;13742;49.306;8.636;2023-04-22T03:25:20;99827.27;;;12.39;84.48
25944;BME280;13742;49.306;8.636;2023-04-22T03:26:20;99827.97;;;12.39;84.46
25944;BME280;13742;49.306;8.636;2023-04-22T03:27:20;99825.80;;;12.37;84.41
25944;BME280;13742;49.306;8.636;2023-04-22T03:28:20;99825.59;;;12.37;84.34
25944;BME280;13742;49.306;8.636;2023-04-22T03:29:20;99825.91;;;12.36;84.31
25944;BME280;13742;49.306;8.636;2023-04-22T03:30:20;99826.06;;;12.36;84.47
25944;BME280;13742;49.306;8.636;2023-04-22T03:31:20;99820.21;;;12.35;84.31
25944;BME280;13742;49.306;8.636;2023-04-22T03:32:20;99823.91;;;12.35;84.37
25944;BME280;13742;49.306;8.636;2023-04-22T03:33:21;99822.92;;;12.35;84.41
25944;BME280;13742;49.306;8.636;2023-04-22T03:34:21;99820.53;;;12.33;84.51
25944;BME280;13742;49.306;8.636;2023-04-22T03:35:20;99821.68;;;12.32;84.37
25944;BME280;13742;49.306;8.636;2023-04-22T03:36:20;99822.61;;;12.33;84.29
25944;BME280;13742;49.306;8.636;2023-04-22T03:37:20;99819.92;;;12.32;84.47
25944;BME280;13742;49.306;8.636;2023-04-22T03:38:20;99823.34;;;12.32;84.39
25944;BME280;13742;49.306;8.636;2023-04-22T03:39:20;99819.51;;;12.31;84.31
25944;BME280;13742;49.306;8.636;2023-04-22T03:40:20;99819.45;;;12.30;84.19
25944;BME280;13742;49.306;8.636;2023-04-22T03:41:20;99817.19;;;12.28;84.44
25944;BME280;13742;49.306;8.636;2023-04-22T03:42:20;99817.50;;;12.28;84.38
25944;BME280;13742;49.306;8.636;2023-04-22T03:43:20;99819.05;;;12.28;84.32
25944;BME280;13742;49.306;8.636;2023-04-22T03:44:20;99822.09;;;12.27;84.28
25944;BME280;13742;49.306;8.636;2023-04-22T03:45:20;99818.86;;;12.26;84.41
25944;BME280;13742;49.306;8.636;2023-04-22T03:46:20;99822.06;;;12.26;84.61
25944;BME280;13742;49.306;8.636;2023-04-22T03:47:20;99818.19;;;12.24;84.27
25944;BME280;13742;49.306;8.636;2023-04-22T03:48:20;99819.25;;;12.24;84.24
25944;BME280;13742;49.306;8.636;2023-04-22T03:49:20;99822.77;;;12.24;84.31
25944;BME280;13742;49.306;8.636;2023-04-22T03:50:20;99817.30;;;12.23;84.37
25944;BME280;13742;49.306;8.636;2023-04-22T03:51:20;99814.81;;;12.23;84.62
25944;BME280;13742;49.306;8.636;2023-04-22T03:52:20;99817.18;;;12.22;84.30
25944;BME280;13742;49.306;8.636;2023-04-22T03:53:20;99812.94;;;12.21;84.10
25944;BME280;13742;49.306;8.636;2023-04-22T03:54:20;99816.02;;;12.22;83.95
25944;BME280;13742;49.306;8.636;2023-04-22T03:55:20;99814.84;;;12.20;84.10
25944;BME280;13742;49.306;8.636;2023-04-22T03:56:20;99815.17;;;12.20;84.00
25944;BME280;13742;49.306;8.636;2023-04-22T03:57:20;99811.31;;;12.19;84.44
25944;BME280;13742;49.306;8.636;2023-04-22T03:58:20;99812.31;;;12.19;84.40
25944;BME280;13742;49.306;8.636;2023-04-22T03:59:20;99808.88;;;12.19;84.39
25944;BME280;13742;49.306;8.636;2023-04-22T04:00:20;99802.97;;;12.18;84.09
25944;BME280;13742;49.306;8.636;2023-04-22T04:01:22;99808.48;;;12.18;84.08
25944;BME280;13742;49.306;8.636;2023-04-22T04:02:20;99803.95;;;12.17;84.04
25944;BME280;13742;49.306;8.636;2023-04-22T04:03:20;99804.28;;;12.17;84.03
25944;BME280;13742;49.306;8.636;2023-04-22T04:04:22;99807.27;;;12.17;83.77
25944;BME280;13742;49.306;8.636;2023-04-22T04:05:20;99806.54;;;12.16;83.96
25944;BME280;13742;49.306;8.636;2023-04-22T04:06:20;99809.94;;;12.15;83.90
25944;BME280;13742;49.306;8.636;2023-04-22T04:07:20;99803.88;;;12.15;84.16
25944;BME280;13742;49.306;8.636;2023-04-22T04:08:21;99802.39;;;12.15;83.82
25944;BME280;13742;49.306;8.636;2023-04-22T04:09:20;99802.00;;;12.15;83.73
25944;BME280;13742;49.306;8.636;2023-04-22T04:10:20;99800.89;;;12.15;83.80
25944;BME280;13742;49.306;8.636;2023-04-22T04:11:20;99801.78;;;12.16;83.68
25944;BME280;13742;49.306;8.636;2023-04-22T04:12:20;99801.89;;;12.14;83.30
25944;BME280;13742;49.306;8.636;2023-04-22T04:13:20;99803.98;;;12.14;83.50
25944;BME280;13742;49.306;8.636;2023-04-22T04:14:20;99804.16;;;12.15;83.59
25944;BME280;13742;49.306;8.636;2023-04-22T04:15:20;99800.34;;;12.14;83.61
25944;BME280;13742;49.306;8.636;2023-04-22T04:16:20;99802.16;;;12.14;83.49
25944;BME280;13742;49.306;8.636;2023-04-22T04:17:24;99805.59;;;12.15;83.59
25944;BME280;13742;49.306;8.636;2023-04-22T04:18:20;99806.23;;;12.14;83.52
25944;BME280;13742;49.306;8.636;2023-04-22T04:19:20;99808.39;;;12.14;83.49
25944;BME280;13742;49.306;8.636;2023-04-22T04:20:21;99805.47;;;12.14;83.40
25944;BME280;13742;49.306;8.636;2023-04-22T04:21:20;99806.97;;;12.15;83.36
25944;BME280;13742;49.306;8.636;2023-04-22T04:22:20;99806.41;;;12.14;83.24
25944;BME280;13742;49.306;8.636;2023-04-22T04:23:20;99802.30;;;12.12;83.32
25944;BME280;13742;49.306;8.636;2023-04-22T04:24:20;99800.70;;;12.12;83.22
25944;BME280;13742;49.306;8.636;2023-04-22T04:25:21;99799.34;;;12.12;83.26
25944;BME280;13742;49.306;8.636;2023-04-22T04:26:21;99795.19;;;12.11;83.40
25944;BME280;13742;49.306;8.636;2023-04-22T04:27:22;99793.20;;;12.11;83.50
25944;BME280;13742;49.306;8.636;2023-04-22T04:28:20;99790.27;;;12.10;83.22
25944;BME280;13742;49.306;8.636;2023-04-22T04:29:22;99787.55;;;12.09;83.39
25944;BME280;13742;49.306;8.636;2023-04-22T04:30:20;99784.86;;;12.10;83.34
25944;BME280;13742;49.306;8.636;2023-04-22T04:31:20;99787.34;;;12.10;83.32
25944;BME280;13742;49.306;8.636;2023-04-22T04:32:21;99781.70;;;12.10;83.39
25944;BME280;13742;49.306;8.636;2023-04-22T04:33:20;99786.57;;;12.10;83.55
25944;BME280;13742;49.306;8.636;2023-04-22T04:34:20;99786.08;;;12.10;83.42
25944;BME280;13742;49.306;8.636;2023-04-22T04:35:20;99788.06;;;12.10;83.37
25944;BME280;13742;49.306;8.636;2023-04-22T04:36:20;99786.19;;;12.10;83.62
25944;BME280;13742;49.306;8.636;2023-04-22T04:37:21;99791.98;;;12.10;83.45
25944;BME280;13742;49.306;8.636;2023-04-22T04:38:20;99790.55;;;12.10;83.34
25944;BME280;13742;49.306;8.636;2023-04-22T04:39:20;99787.55;;;12.11;83.38
25944;BME280;13742;49.306;8.636;2023-04-22T04:40:20;99790.88;;;12.10;83.27
25944;BME280;13742;49.306;8.636;2023-04-22T04:41:20;99791.70;;;12.10;83.26
25944;BME280;13742;49.306;8.636;2023-04-22T04:42:23;99793.03;;;12.10;83.01
25944;BME280;13742;49.306;8.636;2023-04-22T04:43:24;99792.75;;;12.10;83.18
25944;BME280;13742;49.306;8.636;2023-04-22T04:44:21;99792.43;;;12.11;82.99
25944;BME280;13742;49.306;8.636;2023-04-22T04:45:21;99792.80;;;12.10;83.06
25944;BME280;13742;49.306;8.636;2023-04-22T04:46:20;99789.55;;;12.11;82.97
25944;BME280;13742;49.306;8.636;2023-04-22T04:47:21;99791.36;;;12.11;83.13
25944;BME280;13742;49.306;8.636;2023-04-22T04:48:23;99795.70;;;12.12;83.03
25944;BME280;13742;49.306;8.636;2023-04-22T04:49:20;99794.91;;;12.11;83.03
25944;BME280;13742;49.306;8.636;2023-04-22T04:50:20;99794.46;;;12.11;83.05
25944;BME280;13742;49.306;8.636;2023-04-22T04:51:20;99797.00;;;12.11;82.96
25944;BME280;13742;49.306;8.636;2023-04-22T04:52:20;99800.09;;;12.11;83.03
25944;BME280;13742;49.306;8.636;2023-04-22T04:53:20;99801.33;;;12.12;83.03
25944;BME280;13742;49.306;8.636;2023-04-22T04:54:20;99802.69;;;12.11;82.87
25944;BME280;13742;49.306;8.636;2023-04-22T04:55:20;99805.34;;;12.11;82.93
25944;BME280;13742;49.306;8.636;2023-04-22T04:56:20;99804.51;;;12.11;83.05
25944;BME280;13742;49.306;8.636;2023-04-22T04:57:20;99803.23;;;12.10;83.13
25944;BME280;13742;49.306;8.636;2023-04-22T04:58:20;99808.91;;;12.11;83.63
25944;BME280;13742;49.306;8.636;2023-04-22T04:59:20;99804.59;;;12.09;83.75
25944;BME280;13742;49.306;8.636;2023-04-22T05:00:20;99808.85;;;12.09;83.75
25944;BME280;13742;49.306;8.636;2023-04-22T05:01:21;99808.06;;;12.08;83.71
25944;BME280;13742;49.306;8.636;2023-04-22T05:02:20;99806.58;;;12.08;83.75
25944;BME280;13742;49.306;8.636;2023-04-22T05:03:20;99810.93;;;12.09;83.88
25944;BME280;13742;49.306;8.636;2023-04-22T05:04:20;99811.05;;;12.08;83.98
25944;BME280;13742;49.306;8.636;2023-04-22T05:05:20;99809.77;;;12.07;84.54
25944;BME280;13742;49.306;8.636;2023-04-22T05:06:20;99811.14;;;12.06;84.23
25944;BME280;13742;49.306;8.636;2023-04-22T05:07:20;99811.90;;;12.06;84.14
25944;BME280;13742;49.306;8.636;2023-04-22T05:08:20;99809.97;;;12.05;83.90
25944;BME280;13742;49.306;8.636;2023-04-22T05:09:20;99814.83;;;12.05;83.72
25944;BME280;13742;49.306;8.636;2023-04-22T05:10:20;99813.88;;;12.06;83.77
25944;BME280;13742;49.306;8.636;2023-04-22T05:11:20;99812.72;;;12.04;83.60
25944;BME280;13742;49.306;8.636;2023-04-22T05:12:20;99810.03;;;12.05;83.89
25944;BME280;13742;49.306;8.636;2023-04-22T05:13:21;99809.68;;;12.05;84.43
25944;BME280;13742;49.306;8.636;2023-04-22T05:14:20;99811.45;;;12.04;84.02
25944;BME280;13742;49.306;8.636;2023-04-22T05:15:20;99813.11;;;12.04;84.19
25944;BME280;13742;49.306;8.636;2023-04-22T05:16:20;99812.82;;;12.03;84.22
25944;BME280;13742;49.306;8.636;2023-04-22T05:17:20;99817.58;;;12.04;84.14